Time;durP1;ratioP1;P1;durP2;ratioP2;P2;SDS_P1;SDS_P2;PMS_P1;PMS_P2;Temp;Humidity;BMP_temperature;BMP_pressure;BME280_temperature;BME280_humidity;BME280_pressure;Samples;Min_cycle;Max_cycle;Signal;HPM_P1;HPM_P2
2021/08/16 00:01:29;;;;;;;15.80;9.70;;;21.80;99.90;;;;;;4980391;28;20211;-82
2021/08/16 00:03:56;;;;;;;11.40;8.93;;;21.80;99.90;;;;;;4982153;28;20257;-83
2021/08/16 00:06:21;;;;;;;9.77;8.83;;;21.80;99.90;;;;;;4983871;28;20198;-82
2021/08/16 00:08:47;;;;;;;10.70;9.10;;;21.80;99.90;;;;;;4984068;28;20191;-83
2021/08/16 00:11:13;;;;;;;10.93;8.67;;;21.80;99.90;;;;;;4982546;28;20183;-81
2021/08/16 00:13:39;;;;;;;9.87;8.03;;;21.80;99.90;;;;;;4980518;28;20184;-82
2021/08/16 00:16:06;;;;;;;9.43;8.43;;;21.80;99.90;;;;;;4982145;28;20259;-83
2021/08/16 00:18:33;;;;;;;12.53;8.73;;;21.70;99.90;;;;;;4982930;28;20205;-83
2021/08/16 00:21:00;;;;;;;10.30;8.63;;;21.60;99.90;;;;;;4993345;28;20179;-84
2021/08/16 00:23:26;;;;;;;8.87;7.97;;;21.50;99.90;;;;;;4983087;28;20200;-83
2021/08/16 00:25:52;;;;;;;10.47;8.63;;;21.60;99.90;;;;;;4994228;28;20207;-83
2021/08/16 00:28:18;;;;;;;9.23;8.37;;;21.60;99.90;;;;;;4981781;28;20300;-83
2021/08/16 00:30:45;;;;;;;13.20;8.40;;;21.60;99.90;;;;;;4978069;28;20655;-80
2021/08/16 00:33:10;;;;;;;11.27;8.83;;;21.50;99.90;;;;;;4973264;28;20608;-81
2021/08/16 00:35:36;;;;;;;11.43;8.70;;;21.40;99.90;;;;;;4976706;28;20181;-80
2021/08/16 00:38:03;;;;;;;12.20;8.80;;;21.40;99.90;;;;;;4977841;28;20211;-80
2021/08/16 00:40:28;;;;;;;9.47;8.17;;;21.30;99.90;;;;;;4977445;28;20185;-80
2021/08/16 00:42:54;;;;;;;13.00;9.00;;;21.30;99.90;;;;;;4978045;28;20270;-80
2021/08/16 00:45:20;;;;;;;12.30;8.97;;;21.30;99.90;;;;;;4979150;28;20243;-81
2021/08/16 00:47:45;;;;;;;10.77;8.80;;;21.30;99.90;;;;;;4981345;28;20252;-80
2021/08/16 00:50:13;;;;;;;12.43;8.40;;;21.30;99.90;;;;;;4981264;28;20636;-81
2021/08/16 00:52:40;;;;;;;11.50;8.57;;;21.30;99.90;;;;;;4981579;28;20182;-80
2021/08/16 00:55:07;;;;;;;10.83;9.10;;;21.30;99.90;;;;;;4981534;28;20192;-80
2021/08/16 00:57:33;;;;;;;10.13;8.70;;;21.20;99.90;;;;;;4979727;28;20302;-81
2021/08/16 01:00:02;;;;;;;8.90;8.00;;;21.20;99.90;;;;;;4981223;28;20207;-81
2021/08/16 01:02:32;;;;;;;11.43;8.53;;;21.10;99.90;;;;;;4980688;28;20255;-81
2021/08/16 01:05:02;;;;;;;12.17;8.67;;;21.00;99.90;;;;;;4968546;28;20180;-81
2021/08/16 01:07:28;;;;;;;12.07;9.00;;;21.00;99.90;;;;;;4980842;28;20201;-81
2021/08/16 01:09:54;;;;;;;10.60;8.73;;;20.90;99.90;;;;;;4980920;28;20649;-81
2021/08/16 01:12:20;;;;;;;10.10;8.37;;;20.90;99.90;;;;;;4979757;28;20177;-81
2021/08/16 01:14:45;;;;;;;11.73;9.17;;;20.90;99.90;;;;;;4981034;28;20177;-80
2021/08/16 01:17:12;;;;;;;9.77;8.77;;;21.00;99.90;;;;;;4980566;28;20299;-80
2021/08/16 01:19:38;;;;;;;12.83;8.47;;;21.00;99.90;;;;;;4981496;28;20181;-81
2021/08/16 01:22:04;;;;;;;9.90;8.90;;;21.00;99.90;;;;;;4980489;28;20533;-80
2021/08/16 01:24:29;;;;;;;9.10;8.13;;;21.00;99.90;;;;;;4982533;28;20214;-81
2021/08/16 01:26:55;;;;;;;9.40;8.40;;;21.00;99.90;;;;;;4979760;28;20180;-81
2021/08/16 01:29:21;;;;;;;12.80;9.23;;;21.00;99.90;;;;;;4980635;28;20180;-81
2021/08/16 01:31:48;;;;;;;9.27;8.33;;;21.00;99.90;;;;;;4980841;28;20183;-81
2021/08/16 01:34:13;;;;;;;9.50;8.63;;;21.00;99.90;;;;;;4979462;28;20200;-81
2021/08/16 01:36:44;;;;;;;9.13;7.83;;;21.00;99.90;;;;;;4979145;28;20188;-81
2021/08/16 01:39:10;;;;;;;10.03;8.63;;;20.90;99.90;;;;;;4980247;28;20220;-81
2021/08/16 01:41:36;;;;;;;11.83;8.80;;;20.90;99.90;;;;;;4980267;28;20585;-81
2021/08/16 01:44:02;;;;;;;11.07;8.40;;;20.80;99.90;;;;;;4979347;28;20227;-81
2021/08/16 01:46:28;;;;;;;14.90;9.40;;;20.80;99.90;;;;;;4980010;28;20176;-81
2021/08/16 01:48:53;;;;;;;11.60;8.13;;;20.80;99.90;;;;;;4978227;28;20247;-81
2021/08/16 01:51:19;;;;;;;9.60;8.60;;;20.70;99.90;;;;;;4978568;28;20211;-81
2021/08/16 01:53:45;;;;;;;8.90;7.83;;;20.60;99.90;;;;;;4980023;28;20279;-81
2021/08/16 01:56:11;;;;;;;11.53;8.97;;;20.50;99.90;;;;;;4979175;28;20259;-81
2021/08/16 01:58:37;;;;;;;11.17;8.13;;;20.50;99.90;;;;;;4979240;28;20212;-81
2021/08/16 02:01:03;;;;;;;9.57;8.40;;;20.50;99.90;;;;;;4979658;28;20181;-81
2021/08/16 02:03:29;;;;;;;11.67;8.90;;;20.50;99.90;;;;;;4980776;28;20193;-82
2021/08/16 02:05:54;;;;;;;9.23;8.43;;;20.50;99.90;;;;;;4987531;28;20172;-82
2021/08/16 02:08:20;;;;;;;10.57;8.53;;;20.50;99.90;;;;;;4981513;28;20592;-81
2021/08/16 02:10:45;;;;;;;10.37;8.17;;;20.50;99.90;;;;;;4982569;28;20201;-81
2021/08/16 02:13:11;;;;;;;9.27;8.53;;;20.60;99.90;;;;;;4991639;28;20799;-81
2021/08/16 02:15:40;;;;;;;9.43;8.67;;;20.60;99.90;;;;;;4976525;28;20722;-81
2021/08/16 02:18:06;;;;;;;14.97;8.50;;;20.60;99.90;;;;;;4979315;28;20279;-81
2021/08/16 02:20:33;;;;;;;9.03;8.23;;;20.70;99.90;;;;;;4985481;28;20226;-81
2021/08/16 02:22:58;;;;;;;10.50;8.77;;;20.60;99.90;;;;;;4970870;28;20199;-81
2021/08/16 02:25:24;;;;;;;12.37;9.37;;;20.50;99.90;;;;;;4977104;28;20176;-81
2021/08/16 02:27:51;;;;;;;9.97;8.97;;;20.40;99.90;;;;;;4977627;28;20614;-82
2021/08/16 02:30:18;;;;;;;11.70;9.50;;;20.30;99.90;;;;;;4972440;28;20180;-82
2021/08/16 02:32:45;;;;;;;10.50;9.50;;;20.30;99.90;;;;;;4975312;28;20706;-82
2021/08/16 02:35:11;;;;;;;12.07;9.40;;;20.20;99.90;;;;;;4973819;28;20184;-82
2021/08/16 02:37:39;;;;;;;9.80;8.80;;;20.20;99.90;;;;;;4979152;28;20188;-82
2021/08/16 02:40:06;;;;;;;10.07;8.83;;;20.30;99.90;;;;;;4979471;28;20184;-82
2021/08/16 02:42:32;;;;;;;12.53;9.63;;;20.30;99.90;;;;;;4977357;28;20253;-82
2021/08/16 02:44:58;;;;;;;9.43;8.53;;;20.40;99.90;;;;;;4979129;28;20649;-82
2021/08/16 02:47:23;;;;;;;9.63;8.73;;;20.40;99.90;;;;;;4977140;28;20302;-82
2021/08/16 02:49:50;;;;;;;9.83;8.83;;;20.40;99.90;;;;;;4978598;28;20176;-82
2021/08/16 02:52:17;;;;;;;9.67;8.67;;;20.30;99.90;;;;;;4979500;28;20562;-82
2021/08/16 02:54:44;;;;;;;10.00;9.00;;;20.40;99.90;;;;;;4979081;28;20267;-82
2021/08/16 02:57:12;;;;;;;11.47;9.60;;;20.50;99.90;;;;;;4978821;28;22321;-82
2021/08/16 02:59:39;;;;;;;11.20;9.97;;;20.60;99.90;;;;;;4978551;28;20220;-82
2021/08/16 03:02:06;;;;;;;14.47;10.60;;;20.70;99.90;;;;;;4977044;28;20263;-82
2021/08/16 03:04:31;;;;;;;14.63;9.47;;;20.80;99.90;;;;;;4975227;28;20184;-82
2021/08/16 03:06:57;;;;;;;14.10;10.37;;;20.90;99.90;;;;;;4976582;28;20180;-82
2021/08/16 03:09:26;;;;;;;11.17;9.97;;;21.00;99.90;;;;;;4969100;28;20227;-82
2021/08/16 03:11:52;;;;;;;17.13;9.90;;;21.10;99.90;;;;;;4970921;28;20172;-82
2021/08/16 03:14:18;;;;;;;14.47;9.90;;;21.10;99.90;;;;;;4963184;28;20169;-82
2021/08/16 03:16:43;;;;;;;19.43;10.90;;;21.30;99.90;;;;;;4968017;28;20203;-82
2021/08/16 03:19:09;;;;;;;14.40;9.40;;;21.30;99.90;;;;;;4973165;28;20248;-82
2021/08/16 03:21:35;;;;;;;12.27;9.03;;;21.40;99.90;;;;;;4962287;28;20169;-82
2021/08/16 03:24:00;;;;;;;11.60;10.13;;;21.40;99.90;;;;;;4963666;28;20567;-82
2021/08/16 03:26:26;;;;;;;14.60;9.80;;;21.50;99.90;;;;;;4968799;28;20175;-82
2021/08/16 03:28:52;;;;;;;10.90;9.53;;;21.50;99.90;;;;;;4968645;28;20204;-82
2021/08/16 03:31:18;;;;;;;14.07;9.97;;;21.60;99.90;;;;;;4970014;28;20173;-82
2021/08/16 03:33:43;;;;;;;11.17;9.90;;;21.60;99.90;;;;;;4958312;28;20189;-82
2021/08/16 03:36:09;;;;;;;10.40;8.70;;;21.60;99.90;;;;;;4960915;28;20170;-82
2021/08/16 03:38:36;;;;;;;11.13;9.43;;;21.60;99.90;;;;;;4964489;28;20208;-82
2021/08/16 03:41:02;;;;;;;10.07;9.07;;;21.60;99.90;;;;;;4965862;28;20177;-82
2021/08/16 03:43:27;;;;;;;9.37;8.27;;;21.60;99.90;;;;;;4965758;28;20201;-82
2021/08/16 03:45:53;;;;;;;11.77;8.97;;;21.50;99.90;;;;;;4978123;28;20558;-82
2021/08/16 03:48:19;;;;;;;11.13;9.00;;;21.50;99.90;;;;;;4977674;28;20200;-82
2021/08/16 03:50:44;;;;;;;8.90;8.03;;;21.30;99.90;;;;;;4976394;28;20232;-82
2021/08/16 03:53:10;;;;;;;12.47;8.57;;;21.30;99.90;;;;;;4976136;28;20180;-82
2021/08/16 03:55:36;;;;;;;8.03;7.23;;;21.20;99.90;;;;;;4977853;28;20180;-82
2021/08/16 03:58:01;;;;;;;8.37;7.57;;;21.10;99.90;;;;;;4976390;28;20219;-82
2021/08/16 04:00:27;;;;;;;8.20;7.50;;;21.10;99.90;;;;;;4976221;28;20845;-82
2021/08/16 04:02:52;;;;;;;8.90;8.10;;;21.20;99.90;;;;;;4976271;28;20549;-82
2021/08/16 04:05:18;;;;;;;7.67;6.97;;;21.20;99.90;;;;;;4976827;28;20644;-82
2021/08/16 04:07:44;;;;;;;8.23;7.33;;;21.20;99.90;;;;;;4977467;28;20831;-82
2021/08/16 04:10:14;;;;;;;10.57;8.07;;;21.10;99.90;;;;;;4978793;28;20638;-82
2021/08/16 04:12:40;;;;;;;6.67;6.07;;;21.10;99.90;;;;;;4976944;28;20184;-82
2021/08/16 04:15:14;;;;;;;8.43;7.47;;;21.00;99.90;;;;;;4976578;28;20177;-82
2021/08/16 04:17:40;;;;;;;8.47;7.57;;;21.00;99.90;;;;;;4976593;28;20218;-82
2021/08/16 04:20:07;;;;;;;7.73;7.03;;;21.10;99.90;;;;;;4978171;28;20177;-82
2021/08/16 04:22:33;;;;;;;8.00;7.20;;;21.10;99.90;;;;;;4981568;28;20210;-82
2021/08/16 04:24:59;;;;;;;8.03;7.03;;;21.10;99.90;;;;;;4982016;28;20168;-82
2021/08/16 04:27:25;;;;;;;7.90;7.10;;;21.10;99.90;;;;;;4980264;28;20751;-82
2021/08/16 04:29:50;;;;;;;7.80;7.10;;;21.00;99.90;;;;;;4981821;28;20264;-82
2021/08/16 04:32:16;;;;;;;8.00;7.20;;;21.00;99.90;;;;;;4975161;28;20536;-82
2021/08/16 04:34:42;;;;;;;7.33;6.63;;;21.00;99.90;;;;;;4980176;28;20666;-82
2021/08/16 04:37:07;;;;;;;7.40;6.80;;;21.10;99.90;;;;;;4980868;28;20169;-82
2021/08/16 04:39:33;;;;;;;9.77;7.00;;;21.00;99.90;;;;;;4984141;28;20173;-82
2021/08/16 04:41:59;;;;;;;7.00;6.30;;;21.10;99.90;;;;;;4978486;28;20188;-82
2021/08/16 04:44:24;;;;;;;8.03;6.87;;;21.10;99.90;;;;;;4981126;28;20209;-83
2021/08/16 04:46:50;;;;;;;9.67;6.83;;;21.20;99.90;;;;;;4980527;28;20180;-82
2021/08/16 04:49:16;;;;;;;8.10;6.90;;;21.20;99.90;;;;;;4977877;28;20625;-82
2021/08/16 04:51:41;;;;;;;10.60;7.03;;;21.20;99.90;;;;;;4973039;28;20189;-82
2021/08/16 04:54:07;;;;;;;7.63;6.80;;;21.20;99.90;;;;;;4980637;28;20181;-82
2021/08/16 04:56:33;;;;;;;8.97;6.67;;;21.20;99.90;;;;;;4980287;28;20204;-83
2021/08/16 04:59:00;;;;;;;8.43;6.70;;;21.20;99.90;;;;;;4974045;28;20219;-82
2021/08/16 05:01:26;;;;;;;8.20;6.63;;;21.20;99.90;;;;;;4978811;28;20677;-82
2021/08/16 05:03:52;;;;;;;8.57;6.97;;;21.30;99.90;;;;;;4978281;28;20192;-82
2021/08/16 05:06:17;;;;;;;13.43;6.83;;;21.20;99.90;;;;;;4979912;28;20203;-82
2021/08/16 05:08:43;;;;;;;7.20;6.30;;;21.20;99.90;;;;;;4980266;28;20227;-81
2021/08/16 05:11:09;;;;;;;6.97;6.37;;;21.10;99.90;;;;;;4975631;28;20188;-82
2021/08/16 05:13:35;;;;;;;6.93;6.40;;;21.10;99.90;;;;;;4980442;28;20176;-82
2021/08/16 05:16:01;;;;;;;7.43;6.83;;;21.20;99.90;;;;;;4971330;28;20228;-82
2021/08/16 05:18:27;;;;;;;7.63;6.93;;;21.20;99.90;;;;;;4979913;28;20591;-82
2021/08/16 05:20:56;;;;;;;7.60;6.87;;;21.30;99.90;;;;;;4981732;28;20177;-82
2021/08/16 05:23:22;;;;;;;7.17;6.20;;;21.30;99.90;;;;;;4982247;28;20196;-83
2021/08/16 05:25:48;;;;;;;7.40;6.63;;;21.30;99.90;;;;;;4973413;28;20679;-82
2021/08/16 05:28:14;;;;;;;8.03;6.47;;;21.30;99.90;;;;;;4977550;28;20216;-81
2021/08/16 05:30:40;;;;;;;7.83;6.03;;;21.30;99.90;;;;;;4975329;28;20179;-82
2021/08/16 05:33:06;;;;;;;7.17;6.50;;;21.30;99.90;;;;;;4982716;28;20184;-82
2021/08/16 05:35:32;;;;;;;7.30;6.60;;;21.40;99.90;;;;;;4967848;28;20256;-82
2021/08/16 05:37:58;;;;;;;7.33;6.60;;;21.50;99.90;;;;;;4977446;28;20224;-82
2021/08/16 05:40:24;;;;;;;8.37;5.90;;;21.40;99.90;;;;;;4983286;28;20177;-82
2021/08/16 05:42:50;;;;;;;7.00;6.30;;;21.40;99.90;;;;;;4982232;28;20640;-82
2021/08/16 05:45:16;;;;;;;9.10;6.50;;;21.50;99.90;;;;;;4983025;28;20259;-82
2021/08/16 05:47:42;;;;;;;8.03;6.30;;;21.50;99.90;;;;;;4981901;28;20197;-82
2021/08/16 05:50:08;;;;;;;10.00;6.83;;;21.50;99.90;;;;;;4982912;28;20184;-82
2021/08/16 05:52:34;;;;;;;7.43;6.40;;;21.40;99.90;;;;;;4983048;28;20276;-82
2021/08/16 05:55:01;;;;;;;7.37;6.67;;;21.30;99.90;;;;;;4981466;28;20184;-82
2021/08/16 05:57:28;;;;;;;7.57;6.50;;;21.50;99.90;;;;;;4983031;28;20239;-82
2021/08/16 05:59:53;;;;;;;8.93;6.57;;;21.50;99.90;;;;;;5005547;23;20239;-79
2021/08/16 06:02:19;;;;;;;6.70;6.10;;;21.40;99.90;;;;;;5008692;28;20203;-76
2021/08/16 06:04:45;;;;;;;7.80;6.23;;;21.50;99.90;;;;;;5004072;28;20601;-77
2021/08/16 06:07:10;;;;;;;6.73;6.13;;;21.50;99.90;;;;;;4999749;28;20172;-77
2021/08/16 06:09:36;;;;;;;7.37;6.40;;;21.40;99.90;;;;;;4986941;28;20199;-76
2021/08/16 06:12:02;;;;;;;7.63;6.20;;;21.40;99.90;;;;;;4976242;28;20485;-77
2021/08/16 06:14:28;;;;;;;11.57;6.57;;;21.40;99.90;;;;;;4989887;28;20171;-76
2021/08/16 06:16:53;;;;;;;7.23;6.00;;;21.40;99.90;;;;;;4986184;28;20174;-77
2021/08/16 06:19:19;;;;;;;8.37;6.10;;;21.40;99.90;;;;;;4981575;28;20280;-77
2021/08/16 06:21:44;;;;;;;6.70;6.00;;;21.30;99.90;;;;;;4987229;28;20196;-78
2021/08/16 06:24:11;;;;;;;8.00;6.47;;;21.40;99.90;;;;;;4989207;28;20203;-78
2021/08/16 06:26:37;;;;;;;6.60;6.00;;;21.30;99.90;;;;;;4982954;28;20160;-77
2021/08/16 06:29:04;;;;;;;5.93;5.43;;;21.40;99.90;;;;;;4983888;28;20193;-78
2021/08/16 06:31:30;;;;;;;6.10;5.60;;;21.30;99.90;;;;;;4981329;28;20172;-78
2021/08/16 06:33:56;;;;;;;6.73;6.13;;;21.30;99.90;;;;;;4986235;28;20236;-78
2021/08/16 06:36:22;;;;;;;6.20;5.60;;;21.30;99.90;;;;;;4991322;28;20179;-78
2021/08/16 06:38:48;;;;;;;5.90;5.50;;;21.40;99.90;;;;;;4977390;28;20184;-78
2021/08/16 06:41:17;;;;;;;6.20;5.47;;;21.40;99.90;;;;;;4991502;28;20678;-77
2021/08/16 06:43:45;;;;;;;6.23;5.60;;;21.40;99.90;;;;;;4984368;28;20203;-76
2021/08/16 06:46:12;;;;;;;7.93;6.23;;;21.40;99.90;;;;;;4983206;28;20176;-78
2021/08/16 06:48:37;;;;;;;6.47;5.87;;;21.30;99.90;;;;;;4976776;28;20176;-78
2021/08/16 06:51:03;;;;;;;7.30;5.77;;;21.30;99.90;;;;;;4988492;28;20215;-78
2021/08/16 06:53:28;;;;;;;6.07;5.57;;;21.30;99.90;;;;;;4978024;28;20177;-78
2021/08/16 06:55:54;;;;;;;7.30;5.50;;;21.40;99.90;;;;;;4977004;28;20184;-78
2021/08/16 06:58:20;;;;;;;7.70;5.80;;;21.40;99.90;;;;;;4990416;28;20187;-77
2021/08/16 07:00:46;;;;;;;8.50;5.40;;;21.50;99.90;;;;;;4988685;28;20219;-78
2021/08/16 07:03:13;;;;;;;6.80;6.00;;;21.60;99.90;;;;;;4976064;28;20197;-78
2021/08/16 07:05:43;;;;;;;6.30;5.60;;;21.60;99.90;;;;;;4987233;28;20234;-77
2021/08/16 07:08:13;;;;;;;6.13;5.53;;;21.60;99.90;;;;;;4974698;28;20214;-78
2021/08/16 07:10:39;;;;;;;6.50;5.37;;;21.60;99.90;;;;;;4969318;28;20192;-77
2021/08/16 07:13:04;;;;;;;5.80;5.20;;;21.60;99.90;;;;;;4980390;28;20616;-79
2021/08/16 07:15:31;;;;;;;7.70;5.80;;;21.70;99.90;;;;;;4981802;28;20590;-77
2021/08/16 07:17:57;;;;;;;8.53;5.43;;;21.70;99.90;;;;;;4975536;28;20562;-77
2021/08/16 07:20:23;;;;;;;7.60;5.50;;;21.60;99.90;;;;;;4986857;28;20195;-77
2021/08/16 07:22:49;;;;;;;5.70;5.10;;;21.60;99.90;;;;;;4981915;28;20742;-77
2021/08/16 07:25:14;;;;;;;7.93;6.07;;;21.70;99.90;;;;;;4995861;28;20215;-78
2021/08/16 07:27:40;;;;;;;8.63;5.60;;;21.60;99.90;;;;;;4981576;28;20200;-78
2021/08/16 07:30:06;;;;;;;8.57;6.27;;;21.60;99.90;;;;;;4986349;28;20689;-78
2021/08/16 07:32:32;;;;;;;7.33;6.23;;;21.70;99.90;;;;;;4987016;28;20185;-78
2021/08/16 07:34:58;;;;;;;6.77;6.03;;;21.70;99.90;;;;;;4979999;28;20533;-78
2021/08/16 07:37:23;;;;;;;6.20;5.60;;;21.70;99.90;;;;;;4990214;28;20262;-78
2021/08/16 07:39:49;;;;;;;6.97;5.53;;;21.70;99.90;;;;;;4982234;28;20208;-77
2021/08/16 07:42:15;;;;;;;5.13;4.67;;;21.70;99.90;;;;;;4979636;28;20191;-78
2021/08/16 07:44:40;;;;;;;7.77;5.10;;;21.70;99.90;;;;;;4991401;28;20223;-80
2021/08/16 07:47:06;;;;;;;6.13;5.17;;;21.70;99.90;;;;;;4977833;28;20186;-78
2021/08/16 07:49:32;;;;;;;5.23;4.73;;;21.80;99.90;;;;;;4977355;28;20235;-78
2021/08/16 07:51:58;;;;;;;6.57;5.00;;;21.80;99.90;;;;;;4982729;28;20681;-79
2021/08/16 07:54:24;;;;;;;5.27;4.57;;;21.80;99.90;;;;;;4988752;28;20528;-78
2021/08/16 07:56:50;;;;;;;6.33;5.00;;;21.80;99.90;;;;;;4996059;28;20179;-79
2021/08/16 07:59:17;;;;;;;5.73;4.93;;;21.80;99.90;;;;;;4982128;28;20215;-79
2021/08/16 08:01:44;;;;;;;7.03;5.43;;;21.70;99.90;;;;;;4982519;28;20199;-77
2021/08/16 08:04:09;;;;;;;5.77;5.27;;;21.70;99.90;;;;;;4988009;28;20199;-78
2021/08/16 08:06:35;;;;;;;6.57;5.40;;;21.70;99.90;;;;;;4988009;28;20180;-78
2021/08/16 08:09:01;;;;;;;6.10;4.97;;;21.60;99.90;;;;;;4995919;28;20250;-79
2021/08/16 08:11:26;;;;;;;6.30;4.70;;;21.60;99.90;;;;;;4981394;28;20187;-78
2021/08/16 08:13:52;;;;;;;7.93;5.20;;;21.60;99.90;;;;;;4993328;28;20267;-77
2021/08/16 08:16:18;;;;;;;4.90;4.50;;;21.50;99.90;;;;;;4980757;28;20639;-79
2021/08/16 08:18:43;;;;;;;5.23;4.73;;;21.50;99.90;;;;;;4981068;28;20187;-79
2021/08/16 08:21:09;;;;;;;5.03;4.57;;;21.40;99.90;;;;;;4994174;28;20180;-78
2021/08/16 08:23:35;;;;;;;5.10;4.70;;;21.30;99.90;;;;;;4979706;28;20215;-78
2021/08/16 08:26:01;;;;;;;7.23;4.50;;;21.30;99.90;;;;;;4993298;28;20172;-77
2021/08/16 08:28:28;;;;;;;5.20;4.70;;;21.20;99.90;;;;;;4988137;28;20326;-77
2021/08/16 08:30:53;;;;;;;6.33;5.10;;;21.30;99.90;;;;;;4983931;28;20263;-78
2021/08/16 08:33:19;;;;;;;5.23;4.50;;;21.20;99.90;;;;;;4988428;28;20176;-78
2021/08/16 08:35:46;;;;;;;6.47;5.07;;;21.30;99.90;;;;;;4985683;28;20544;-78
2021/08/16 08:38:12;;;;;;;6.87;4.30;;;21.40;99.90;;;;;;4992623;28;20181;-78
2021/08/16 08:40:40;;;;;;;6.50;4.57;;;21.40;99.90;;;;;;4991327;28;20199;-78
2021/08/16 08:43:11;;;;;;;7.73;4.80;;;21.40;99.90;;;;;;4985416;28;20282;-79
2021/08/16 08:45:38;;;;;;;7.63;4.77;;;21.40;99.90;;;;;;4988641;28;20203;-77
2021/08/16 08:48:04;;;;;;;6.23;4.13;;;21.40;99.90;;;;;;4982614;28;20203;-77
2021/08/16 08:50:30;;;;;;;5.00;4.60;;;21.40;99.90;;;;;;4989340;28;20672;-77
2021/08/16 08:53:02;;;;;;;6.13;4.63;;;21.50;99.90;;;;;;4979849;28;20185;-77
2021/08/16 08:55:29;;;;;;;4.60;4.20;;;21.50;99.90;;;;;;4986329;28;20184;-78
2021/08/16 08:58:00;;;;;;;5.47;4.57;;;21.60;99.90;;;;;;4985539;28;20663;-78
2021/08/16 09:00:26;;;;;;;5.13;4.63;;;21.60;99.90;;;;;;4979822;28;20211;-79
2021/08/16 09:02:59;;;;;;;6.43;4.93;;;21.60;99.90;;;;;;4984780;28;20200;-78
2021/08/16 09:05:25;;;;;;;7.27;4.60;;;21.70;99.90;;;;;;4985451;28;20670;-79
2021/08/16 09:07:54;;;;;;;4.77;4.17;;;21.80;99.90;;;;;;4986764;28;20192;-78
2021/08/16 09:10:22;;;;;;;4.80;3.77;;;21.80;99.90;;;;;;4990157;28;20227;-78
2021/08/16 09:12:48;;;;;;;6.90;4.83;;;21.80;99.90;;;;;;4981780;28;20586;-78
2021/08/16 09:15:22;;;;;;;5.97;4.97;;;21.90;99.90;;;;;;4993475;28;20181;-77
2021/08/16 09:17:49;;;;;;;7.27;4.43;;;21.90;99.90;;;;;;4988478;28;20172;-79
2021/08/16 09:20:22;;;;;;;5.77;4.33;;;21.80;99.90;;;;;;4985178;28;20232;-78
2021/08/16 09:23:01;;;;;;;4.97;4.37;;;21.80;99.90;;;;;;4991077;28;20543;-78
2021/08/16 09:25:30;;;;;;;5.30;4.07;;;21.60;99.90;;;;;;4988278;28;20179;-78
2021/08/16 09:27:56;;;;;;;4.67;4.00;;;21.60;99.90;;;;;;4982809;28;20184;-77
2021/08/16 09:30:34;;;;;;;4.97;3.97;;;21.60;99.90;;;;;;4988422;28;20282;-78
2021/08/16 09:33:14;;;;;;;4.37;3.97;;;21.60;99.90;;;;;;4986426;28;20605;-77
2021/08/16 09:35:51;;;;;;;4.00;3.60;;;21.50;99.90;;;;;;4988199;28;20686;-78
2021/08/16 09:38:17;;;;;;;6.90;3.57;;;21.60;99.90;;;;;;4991559;28;20172;-78
2021/08/16 09:40:43;;;;;;;3.80;3.50;;;21.60;99.90;;;;;;4986667;28;20238;-78
2021/08/16 09:43:10;;;;;;;7.80;4.30;;;21.50;99.90;;;;;;4983514;28;20220;-77
2021/08/16 09:45:38;;;;;;;5.10;3.40;;;21.60;99.90;;;;;;4996697;28;20600;-78
2021/08/16 09:48:06;;;;;;;5.73;3.83;;;21.50;99.90;;;;;;4984699;28;20183;-78
2021/08/16 09:50:36;;;;;;;4.37;3.10;;;21.40;99.90;;;;;;4977532;28;20602;-78
2021/08/16 09:53:10;;;;;;;3.50;3.17;;;21.40;99.90;;;;;;4978564;28;20180;-78
2021/08/16 09:55:40;;;;;;;5.67;3.90;;;21.40;99.90;;;;;;4992393;28;20177;-78
2021/08/16 09:58:13;;;;;;;3.83;3.13;;;21.30;99.90;;;;;;4984317;28;20574;-80
2021/08/16 10:00:43;;;;;;;5.63;3.73;;;21.30;99.90;;;;;;4991507;28;20208;-79
2021/08/16 10:03:11;;;;;;;4.90;3.23;;;21.20;99.90;;;;;;4987046;28;20208;-77
2021/08/16 10:05:41;;;;;;;3.83;3.50;;;20.80;99.90;;;;;;4982844;28;20172;-78
2021/08/16 10:08:12;;;;;;;3.40;2.97;;;20.90;99.90;;;;;;4977929;28;20184;-78
2021/08/16 10:10:39;;;;;;;3.80;3.30;;;20.80;99.90;;;;;;4977863;28;20583;-78
2021/08/16 10:13:07;;;;;;;5.93;3.37;;;20.70;99.90;;;;;;4980184;28;20183;-78
2021/08/16 10:15:39;;;;;;;3.77;3.47;;;20.50;99.90;;;;;;4989946;28;20306;-78
2021/08/16 10:18:11;;;;;;;4.13;3.47;;;20.50;99.90;;;;;;4985079;28;20588;-79
2021/08/16 10:20:37;;;;;;;3.93;3.17;;;20.50;99.90;;;;;;4982830;28;20206;-78
2021/08/16 10:23:20;;;;;;;6.47;4.00;;;20.30;99.90;;;;;;4990805;28;20200;-77
2021/08/16 10:25:47;;;;;;;3.40;3.10;;;20.50;99.90;;;;;;4991068;28;20217;-77
2021/08/16 10:28:33;;;;;;;5.33;3.50;;;20.60;99.90;;;;;;4982273;28;20172;-78
2021/08/16 10:31:01;;;;;;;5.90;3.50;;;20.70;99.90;;;;;;4981427;28;20280;-78
2021/08/16 10:33:28;;;;;;;3.73;3.33;;;20.80;99.90;;;;;;4975980;28;20192;-77
2021/08/16 10:35:55;;;;;;;6.40;3.70;;;20.80;99.90;;;;;;4989927;28;20183;-78
2021/08/16 10:38:24;;;;;;;4.30;3.57;;;20.90;99.90;;;;;;4969815;28;20175;-78
2021/08/16 10:40:58;;;;;;;3.23;2.93;;;20.90;99.90;;;;;;4984127;28;20251;-78
2021/08/16 10:43:33;;;;;;;3.83;3.40;;;20.80;99.90;;;;;;4991084;28;20268;-78
2021/08/16 10:46:00;;;;;;;3.90;3.50;;;20.80;99.90;;;;;;4990025;28;20167;-77
2021/08/16 10:48:26;;;;;;;4.10;3.80;;;20.80;99.90;;;;;;4981664;28;20176;-77
2021/08/16 10:51:10;;;;;;;3.73;3.40;;;20.90;99.90;;;;;;4985562;28;20667;-77
2021/08/16 10:53:49;;;;;;;3.37;3.07;;;21.00;99.90;;;;;;4990273;28;20188;-77
2021/08/16 10:56:19;;;;;;;6.00;3.70;;;21.10;99.90;;;;;;4990509;28;20184;-77
2021/08/16 10:58:46;;;;;;;4.47;3.30;;;21.20;99.90;;;;;;4961824;28;20631;-77
2021/08/16 11:01:31;;;;;;;3.70;3.40;;;21.30;99.90;;;;;;4975575;28;20188;-77
2021/08/16 11:04:03;;;;;;;4.00;3.20;;;21.40;99.90;;;;;;4970348;28;20258;-78
2021/08/16 11:06:29;;;;;;;4.43;3.07;;;21.30;99.90;;;;;;4982503;28;20188;-77
2021/08/16 11:08:59;;;;;;;4.77;3.17;;;21.30;99.90;;;;;;4990083;28;20168;-77
2021/08/16 11:11:25;;;;;;;3.90;3.03;;;21.20;99.90;;;;;;4987927;28;20225;-77
2021/08/16 11:14:05;;;;;;;3.57;3.03;;;21.20;99.90;;;;;;4980788;28;20180;-77
2021/08/16 11:16:31;;;;;;;3.77;3.33;;;21.00;99.90;;;;;;4983800;28;20263;-76
2021/08/16 11:18:57;;;;;;;3.53;2.90;;;21.00;99.90;;;;;;4975898;28;20235;-80
2021/08/16 11:21:23;;;;;;;4.33;3.03;;;21.10;99.90;;;;;;4975951;28;20252;-78
2021/08/16 11:24:01;;;;;;;3.60;2.90;;;21.10;99.90;;;;;;4988013;28;20326;-78
2021/08/16 11:26:27;;;;;;;4.67;3.23;;;21.20;99.90;;;;;;4968724;28;20608;-77
2021/08/16 11:29:04;;;;;;;4.17;3.20;;;21.10;99.90;;;;;;4983288;28;20188;-78
2021/08/16 11:31:31;;;;;;;3.00;2.70;;;21.10;99.90;;;;;;4980611;28;20168;-78
2021/08/16 11:34:09;;;;;;;3.93;2.90;;;21.10;99.90;;;;;;4985007;28;20189;-78
2021/08/16 11:36:37;;;;;;;4.93;2.80;;;21.20;99.90;;;;;;4980506;28;20182;-78
2021/08/16 11:39:04;;;;;;;3.73;3.10;;;21.00;99.90;;;;;;4984605;28;20203;-79
2021/08/16 11:41:32;;;;;;;3.77;3.00;;;21.10;99.90;;;;;;4990357;28;20183;-77
2021/08/16 11:44:09;;;;;;;3.73;2.70;;;21.10;99.90;;;;;;4985488;28;20199;-77
2021/08/16 11:46:35;;;;;;;3.00;2.70;;;21.00;99.90;;;;;;4980959;28;20180;-77
2021/08/16 11:49:07;;;;;;;4.43;3.23;;;21.00;99.90;;;;;;4983634;28;20275;-78
2021/08/16 11:51:33;;;;;;;2.57;2.37;;;21.00;99.90;;;;;;4982690;28;20524;-77
2021/08/16 11:53:59;;;;;;;3.03;2.67;;;21.00;99.90;;;;;;4992959;28;20234;-77
2021/08/16 11:56:25;;;;;;;3.10;2.80;;;21.00;99.90;;;;;;4989884;28;20194;-78
2021/08/16 11:58:50;;;;;;;3.33;3.03;;;20.80;99.90;;;;;;4982590;28;20172;-78
2021/08/16 12:01:18;;;;;;;3.70;2.57;;;20.80;99.90;;;;;;5006736;23;20285;-83
2021/08/16 12:03:44;;;;;;;4.43;3.10;;;20.70;99.90;;;;;;4999458;28;20195;-84
2021/08/16 12:06:13;;;;;;;3.53;2.50;;;20.70;99.90;;;;;;4998644;28;20221;-85
2021/08/16 12:08:39;;;;;;;3.97;3.57;;;20.70;99.90;;;;;;4999033;28;20180;-84
2021/08/16 12:11:12;;;;;;;5.03;4.30;;;20.70;99.90;;;;;;4996188;28;20584;-83
2021/08/16 12:13:38;;;;;;;6.03;3.17;;;20.80;99.90;;;;;;4983212;28;20183;-84
2021/08/16 12:16:04;;;;;;;5.30;3.10;;;20.80;99.90;;;;;;4995502;28;20219;-83
2021/08/16 12:18:32;;;;;;;3.70;2.80;;;20.60;99.90;;;;;;4981099;28;20184;-83
2021/08/16 12:21:01;;;;;;;3.10;2.80;;;20.60;99.90;;;;;;4999868;28;20200;-84
2021/08/16 12:23:35;;;;;;;2.73;2.53;;;20.60;99.90;;;;;;4981160;28;20203;-84
2021/08/16 12:26:01;;;;;;;2.87;2.67;;;20.50;99.90;;;;;;4998037;28;20250;-84
2021/08/16 12:28:44;;;;;;;10.20;2.90;;;20.40;99.90;;;;;;4998925;28;20173;-82
2021/08/16 12:31:24;;;;;;;3.07;2.57;;;20.30;99.90;;;;;;4998560;28;20218;-83
2021/08/16 12:34:03;;;;;;;3.10;2.47;;;20.30;99.90;;;;;;4999443;28;20164;-83
2021/08/16 12:36:37;;;;;;;6.03;2.87;;;20.30;99.90;;;;;;4981507;28;20186;-84
2021/08/16 12:39:09;;;;;;;2.67;2.47;;;20.20;99.90;;;;;;4998859;28;20190;-84
2021/08/16 12:41:35;;;;;;;4.70;2.60;;;20.10;99.90;;;;;;4976713;28;20260;-82
2021/08/16 12:44:01;;;;;;;4.30;2.57;;;20.10;99.90;;;;;;5001949;28;20737;-84
2021/08/16 12:46:36;;;;;;;3.10;2.57;;;20.10;99.90;;;;;;4974812;28;20215;-84